Terminal Aerodrome Forecast
Issued by NWS Sterling, VA

Home | Current Version | Previous Version | Text Only | Print | Product List | Glossary On
Versions: 1 2 3 4 5 6 7 8 9 10 11 12 13 14 15 16
000
FTUS41 KLWX 041725
TAFMRB
TAF
KMRB 041725Z 0418/0518 28008KT P6SM SCT050
     FM042300 30004KT P6SM SCT050
     FM050500 00000KT P6SM SCT050
     FM051200 VRB03KT P6SM SCT250
     FM051400 28007KT P6SM FEW250
     FM051600 29011G16KT P6SM FEW250=

USA.gov is the U.S. government's official web portal to all federal, state and local government web resources and services.